• Join FlightAware (Why Join?)
  • Login
  • US Flag 
12:23AM EDT


 

Airport Tracker/Info


-or-


 

Live Flight TrackerFlight Track Log ✈ JBU56 ✈ 23-Jul-2013 ✈ KIAD - KBOS

Flight Track Log - Related Links

Times and Time Zones

All times are in EDT time to prevent confusion due to time zone crossing. See the JBU56 flight status page for this flight to view local times or setup timezone preferences in your user account.

Time Position Orientation Groundspeed Altitude Reporting Facility
EDT Latitude Longitude Course Direction KTS MPH feet Rate Location/Type
09:08AM 38.9833 -77.5333 90° East 177 204 2,700  Level Potomac TRACON
09:09AM 39.0167 -77.5667 322° Northwest 218 251 5,100 2,400 Climbing Potomac TRACON
09:10AM 39.1034 -76.4766 74° East  Level FlightAware Approximate
09:10AM 39.1000 -77.5667 360° North 254 292 7,600  Level Potomac TRACON
09:11AM 39.1167 -76.3858 90° East  Level FlightAware Approximate
09:11AM 39.1539 -77.4064 67° East 291 335 9,900  Level Washington Center
09:12AM 39.1339 -76.2971 76° East  Level FlightAware Approximate
09:12AM 39.1661 -77.2861 82° East 313 360 10,000  Level Washington Center
09:13AM 39.1500 -76.2066 90° East  Level FlightAware Approximate
09:13AM 39.1406 -77.1733 106° East 313 360 10,100  Level Washington Center
09:14AM 39.1131 -77.0550 107° East 324 373 12,100 2,160 Climbing Washington Center
09:15AM 39.0997 -76.9289 98° East 338 389 14,500 2,340 Climbing Washington Center
09:16AM 39.1094 -76.7928 85° East 351 404 16,800 2,220 Climbing Washington Center
09:17AM 39.1192 -76.6564 85° East 366 421 19,000 1,980 Climbing Washington Center
09:18AM 39.1286 -76.5119 85° East 381 438 20,800 1,620 Climbing Washington Center
09:19AM 39.1403 -76.3650 84° East 401 461 22,200 1,080 Climbing Washington Center
09:20AM 39.1536 -76.2100 84° East 415 478 23,000 420 Climbing Washington Center
09:21AM 39.1708 -76.0708 81° East 435 501 23,100 960 Climbing Washington Center
09:22AM 39.1900 -75.9183 81° East 435 501 25,000 1,620 Climbing Washington Center
09:23AM 39.2611 -75.7928 54° Northeast 421 484 26,300 1,080 Climbing Washington Center
09:24AM 39.3508 -75.6722 46° Northeast 437 503 27,200 900 Climbing Washington Center
09:25AM 39.4469 -75.5539 44° Northeast 450 518 28,200 780 Climbing Washington Center
09:26AM 39.5425 -75.4275 46° Northeast 474 545 28,800 900 Climbing Washington Center
09:27AM 39.6422 -75.2978 45° Northeast 487 560 30,100 960 Climbing Washington Center
09:29AM 39.7578 -75.1319 48° Northeast 502 578 31,000 360 Climbing New York Center
09:30AM 39.8525 -74.9944 48° Northeast 508 585 31,000  Level New York Center
09:31AM 39.9467 -74.8622 47° Northeast 508 585 31,000  Level New York Center
09:32AM 40.0411 -74.7239 48° Northeast 502 578 31,000  Level New York Center
09:33AM 40.1422 -74.5669 50° Northeast 502 578 31,000  Level New York Center
09:34AM 40.2361 -74.4253 49° Northeast 507 583 31,000 -780 Level New York Center
09:35AM 40.3261 -74.2803 51° Northeast 507 583 29,500 -1,560 Descending New York Center
09:36AM 40.4200 -74.1350 50° Northeast 512 589 28,000 -1,560 Descending New York Center
09:37AM 40.5072 -73.9919 51° Northeast 512 589 26,400 -1,440 Descending New York Center
09:38AM 40.6461 -73.7750 50° Northeast 521 600 24,300 -960 Descending Boston Center
09:39AM 40.7161 -73.6667 50° Northeast 503 579 24,000 -180 Descending Boston Center
09:40AM 40.8200 -73.4986 51° Northeast 490 564 24,000  Level Boston Center
09:41AM 40.9067 -73.3628 50° Northeast 490 564 24,000 -540 Level Boston Center
09:42AM 41.0075 -73.2211 47° Northeast 485 558 23,000 -540 Descending Boston Center
09:43AM 41.0961 -73.0900 48° Northeast 479 551 23,000  Level Boston Center
09:44AM 41.1675 -72.9447 57° Northeast 474 545 23,000  Level Boston Center
09:45AM 41.2267 -72.7878 63° Northeast 474 545 23,000  Level Boston Center
09:46AM 41.2894 -72.6308 62° Northeast 469 540 23,000  Level Boston Center
09:47AM 41.3439 -72.4897 63° Northeast 472 543 23,000  Level Boston Center
09:48AM 41.4083 -72.3156 64° Northeast 472 543 23,000  Level Boston Center
09:49AM 41.4706 -72.1547 63° Northeast 472 543 23,000 -240 Level Boston Center
09:50AM 41.5283 -72.0019 63° Northeast 472 543 22,600 -1,500 Descending Boston Center
09:51AM 41.5861 -71.8461 64° Northeast 472 543 20,100 -2,640 Descending Boston Center
09:52AM 41.6436 -71.6983 62° Northeast 462 532 17,400 -1,920 Descending Boston Center
09:53AM 41.6906 -71.5672 64° Northeast 442 509 15,900 -2,280 Descending Boston Center
09:54AM 41.7536 -71.3994 63° Northeast 395 455 12,500 -2,040 Descending Boston Center
09:55AM 41.8003 -71.2733 64° Northeast 375 432 11,900 -660 Descending Boston Center
09:56AM 41.8450 -71.1525 64° Northeast 363 418 11,200 -720 Descending Boston Center
09:57AM 41.9000 -71.0667 49° Northeast 358 412 10,600 -1,140 Descending KA90
09:58AM 41.9667 -70.9667 48° Northeast 328 377 9,100 -1,680 Descending KA90
09:59AM 42.0333 -70.9000 37° Northeast 312 359 7,300 -1,920 Descending KA90
10:00AM 42.1167 -70.8667 17° North 301 346 5,300 -1,320 Descending KA90
10:01AM 42.1872 -70.8569 North 283 326 4,500 -900 Descending Boston Center
10:02AM 42.2519 -70.8639 355° North 221 254 3,400 -1,320 Descending Boston Center
10:03AM 42.2833 -70.9000 320° Northwest 174 200 2,100 -1,320 Descending KA90
10:04AM 42.3167 -70.9500 312° West 172 198 900 -1,140 Descending KA90